Accueil
METAR-TAF:

METAR-TAF

Aéroports :

Rodez, France

Aéroport de Rodez-Aveyron, Marcillac

latitude: 44-24N, longitude: 002-29E, altitude: 581 m

Observation

Le bulletin a été fait il y a 31 minutes, à 10:00 UTC
Vent 8 kt de nord
Température -1°C
Humidité 69%
Pression 1007 hPa
Visibilité 10 km ou plus
Ciel couvert à une hauteur de 3600 ft

METAR: LFCR 221000Z AUTO 35008KT 9999 OVC036 M01/M06 Q1007 NOSIG

Heure: 11:31 (10:31 UTC)

Prévision

Le bulletin a été fait il y a 5 heures et 31 minutes, à 05:00 UTC
Prévision valable du 22 à 06 UTC au 23 à 06 UTC
Vent 8 kt de nord
Visibilité 10 km ou plus
pas de nuages en-dessous de 1500 mètres et pas de cumulonimbus.
Temporairement
du 22 à 08 UTC au 22 à 14 UTC
Nuages épars à une hauteur de 1600 ft

TAF: LFCR 220500Z 2206/2306 35008KT CAVOK TEMPO 2208/2214 SCT016

Observations et prévisions météorologiques de plus de 4000 aéroports (messages METAR et TAF).

Les stations disponibles sont représentées par des disques jaunes et rouges sur la carte.

Passer la souris dessus pour voir le nom de la station.

Cliquer dessus pour voir les observations et prévisions météorologiques.

Pour changer de carte: cliquez sur les boutons verts avec une croix noire pour zoomer, sur le bouton vert avec un tiret pour effectuer un zoom arrière, ou sur les flèches vertes pour les cartes adjacentes.


METAR-TAF: